Time;durP1;ratioP1;P1;durP2;ratioP2;P2;SDS_P1;SDS_P2;PMS_P1;PMS_P2;Temp;Humidity;BMP_temperature;BMP_pressure;BME280_temperature;BME280_humidity;BME280_pressure;Samples;Min_cycle;Max_cycle;Signal;HPM_P1;HPM_P2
2022/08/23 00:02:07;;;;;;;17.40;4.78;;;21.60;99.90;;;;;;5072477;28;20556;-81
2022/08/23 00:04:39;;;;;;;13.48;5.50;;;21.60;99.90;;;;;;5057717;28;20558;-81
2022/08/23 00:07:26;;;;;;;12.30;6.15;;;21.70;99.90;;;;;;5057417;28;20822;-81
2022/08/23 00:09:52;;;;;;;8.05;4.57;;;21.70;99.90;;;;;;5075514;28;20292;-81
2022/08/23 00:12:22;;;;;;;13.77;4.85;;;21.60;99.90;;;;;;5073688;28;20801;-81
2022/08/23 00:14:51;;;;;;;8.80;4.93;;;21.70;99.90;;;;;;5044146;28;20309;-81
2022/08/23 00:17:18;;;;;;;8.75;4.45;;;21.70;99.90;;;;;;5084069;28;20183;-81
2022/08/23 00:19:46;;;;;;;8.23;4.28;;;21.80;99.90;;;;;;5075337;28;20214;-81
2022/08/23 00:22:13;;;;;;;11.77;5.18;;;21.80;99.90;;;;;;5077500;28;20194;-81
2022/08/23 00:24:44;;;;;;;11.45;5.05;;;21.70;99.90;;;;;;5078491;28;20193;-81
2022/08/23 00:27:13;;;;;;;17.85;4.85;;;21.90;99.90;;;;;;5074610;28;20182;-81
2022/08/23 00:29:46;;;;;;;12.77;4.45;;;21.90;99.90;;;;;;5074994;28;20167;-81
2022/08/23 00:32:17;;;;;;;9.15;5.15;;;21.90;99.90;;;;;;5076187;28;20226;-81
2022/08/23 00:34:43;;;;;;;18.35;5.80;;;21.90;99.90;;;;;;5075180;28;20182;-81
2022/08/23 00:37:12;;;;;;;13.15;4.68;;;22.00;99.90;;;;;;5077453;28;20198;-81
2022/08/23 00:39:40;;;;;;;11.68;4.43;;;21.90;99.90;;;;;;5059490;28;20175;-81
2022/08/23 00:48:15;;;;;;;15.65;5.38;;;21.70;99.90;;;;;;5077058;28;20204;-81
2022/08/23 00:51:18;;;;;;;12.60;5.72;;;21.80;99.90;;;;;;5076641;28;20245;-81
2022/08/23 00:53:51;;;;;;;12.73;5.13;;;21.60;99.90;;;;;;5075798;28;20225;-80
2022/08/23 00:56:22;;;;;;;9.45;4.75;;;21.80;99.90;;;;;;5074953;28;20178;-81
2022/08/23 00:58:48;;;;;;;11.55;5.10;;;21.90;99.90;;;;;;5076490;28;20532;-80
2022/08/23 01:01:18;;;;;;;9.05;4.05;;;22.00;99.90;;;;;;5075107;28;20651;-81
2022/08/23 01:03:51;;;;;;;11.77;5.00;;;21.90;99.90;;;;;;5077106;28;20170;-81
2022/08/23 01:06:57;;;;;;;6.70;4.32;;;21.70;99.90;;;;;;5075106;28;20549;-81
2022/08/23 01:09:24;;;;;;;11.02;4.40;;;21.60;99.90;;;;;;5075181;28;20166;-82
2022/08/23 01:12:18;;;;;;;6.35;4.60;;;21.80;99.90;;;;;;5074773;28;20251;-81
2022/08/23 01:14:59;;;;;;;14.93;4.93;;;21.70;99.90;;;;;;5074494;28;20186;-81
2022/08/23 01:17:50;;;;;;;8.48;4.35;;;21.70;99.90;;;;;;5076574;28;20299;-81
2022/08/23 01:20:27;;;;;;;5.55;3.97;;;21.60;99.90;;;;;;5077303;28;20175;-81
2022/08/23 01:23:26;;;;;;;8.07;4.57;;;21.40;99.90;;;;;;5077211;28;20202;-81
2022/08/23 01:25:53;;;;;;;7.45;4.28;;;21.50;99.90;;;;;;5079405;28;20178;-81
2022/08/23 01:28:24;;;;;;;15.32;4.47;;;21.40;99.90;;;;;;5077407;28;20708;-81
2022/08/23 01:30:58;;;;;;;7.43;4.55;;;21.30;99.90;;;;;;5075961;28;20592;-81
2022/08/23 01:33:23;;;;;;;9.52;4.35;;;21.20;99.90;;;;;;5075140;28;20245;-81
2022/08/23 01:35:54;;;;;;;9.70;4.45;;;21.20;99.90;;;;;;5075480;28;20571;-81
2022/08/23 01:38:21;;;;;;;10.23;4.53;;;21.30;99.90;;;;;;5074666;28;20185;-81
2022/08/23 01:40:50;;;;;;;11.05;4.35;;;21.20;99.90;;;;;;5075488;28;20163;-81
2022/08/23 01:43:22;;;;;;;15.10;4.82;;;21.30;99.90;;;;;;5073561;28;20565;-81
2022/08/23 01:45:50;;;;;;;10.02;4.30;;;21.20;99.90;;;;;;5075284;28;20182;-81
2022/08/23 01:48:20;;;;;;;10.30;4.40;;;21.20;99.90;;;;;;5075362;28;20650;-81
2022/08/23 01:50:53;;;;;;;13.00;4.10;;;21.20;99.90;;;;;;5074184;28;20235;-81
2022/08/23 01:53:18;;;;;;;7.00;4.45;;;21.20;99.90;;;;;;5073725;28;20206;-81
2022/08/23 01:55:45;;;;;;;7.90;4.43;;;21.20;99.90;;;;;;5074835;28;20752;-81
2022/08/23 01:58:20;;;;;;;8.45;4.10;;;21.30;99.90;;;;;;5073540;28;20608;-82
2022/08/23 02:00:49;;;;;;;5.45;4.07;;;21.30;99.90;;;;;;5074309;28;20638;-82
2022/08/23 02:03:39;;;;;;;8.95;4.13;;;21.50;99.90;;;;;;5074893;28;20179;-82
2022/08/23 02:06:25;;;;;;;7.82;4.63;;;21.40;99.90;;;;;;5074281;28;20536;-81
2022/08/23 02:09:15;;;;;;;8.63;4.70;;;21.40;99.90;;;;;;5074619;28;20167;-81
2022/08/23 02:11:43;;;;;;;10.77;4.28;;;21.50;99.90;;;;;;5071457;28;20267;-82
2022/08/23 02:14:12;;;;;;;9.40;4.10;;;21.40;99.90;;;;;;5073965;28;20183;-82
2022/08/23 02:16:44;;;;;;;8.90;4.70;;;21.30;99.90;;;;;;5054650;28;20201;-82
2022/08/23 02:19:15;;;;;;;9.45;4.25;;;21.20;99.90;;;;;;5074982;28;20171;-81
2022/08/23 02:21:42;;;;;;;10.73;4.53;;;21.10;99.90;;;;;;5073409;28;20207;-81
2022/08/23 02:24:38;;;;;;;13.48;5.03;;;21.00;99.90;;;;;;5072479;28;20330;-81
2022/08/23 02:27:06;;;;;;;9.30;4.40;;;21.00;99.90;;;;;;5072676;28;20658;-81
2022/08/23 02:29:34;;;;;;;13.60;5.10;;;21.10;99.90;;;;;;5084270;28;20159;-81
2022/08/23 02:32:27;;;;;;;11.38;5.53;;;21.20;99.90;;;;;;5079629;28;20627;-82
2022/08/23 02:35:09;;;;;;;7.13;4.70;;;21.10;99.90;;;;;;5077418;28;20178;-81
2022/08/23 02:37:39;;;;;;;10.32;5.15;;;21.00;99.90;;;;;;5072940;28;20273;-81
2022/08/23 02:40:25;;;;;;;7.65;4.60;;;20.90;99.90;;;;;;5074637;28;20166;-81
2022/08/23 02:42:51;;;;;;;15.40;4.80;;;20.90;99.90;;;;;;5073459;28;20740;-81
2022/08/23 02:45:39;;;;;;;16.40;5.18;;;20.90;99.90;;;;;;5073599;28;20182;-82
2022/08/23 02:48:08;;;;;;;9.90;4.63;;;20.90;99.90;;;;;;5074103;28;20182;-81
2022/08/23 02:50:36;;;;;;;8.20;5.18;;;20.70;99.90;;;;;;5073345;28;20166;-82
2022/08/23 02:53:03;;;;;;;9.50;5.13;;;20.80;99.90;;;;;;5072046;28;20210;-81
2022/08/23 02:55:29;;;;;;;12.40;6.07;;;20.70;99.90;;;;;;5073896;28;20205;-82
2022/08/23 02:57:55;;;;;;;12.65;5.57;;;20.60;99.90;;;;;;5074528;28;20524;-82
2022/08/23 03:00:22;;;;;;;11.68;5.53;;;20.50;99.90;;;;;;5074271;28;20224;-81
2022/08/23 03:02:48;;;;;;;18.67;4.30;;;20.60;99.90;;;;;;5073502;28;20182;-81
2022/08/23 03:05:15;;;;;;;10.43;5.70;;;20.50;99.90;;;;;;5073786;28;20253;-81
2022/08/23 03:07:41;;;;;;;12.45;5.68;;;20.50;99.90;;;;;;5073658;28;20162;-81
2022/08/23 03:10:08;;;;;;;7.85;5.07;;;20.40;99.90;;;;;;5073499;28;20166;-81
2022/08/23 03:12:35;;;;;;;16.80;4.90;;;20.40;99.90;;;;;;5072100;28;20240;-81
2022/08/23 03:15:01;;;;;;;14.50;5.38;;;20.40;99.90;;;;;;5073578;28;20241;-81
2022/08/23 03:17:27;;;;;;;10.80;4.72;;;20.30;99.90;;;;;;5073157;28;20201;-81
2022/08/23 03:19:57;;;;;;;9.32;5.32;;;20.30;99.90;;;;;;5074118;28;20163;-82
2022/08/23 03:22:29;;;;;;;16.15;5.60;;;20.40;99.90;;;;;;5074060;28;20217;-82
2022/08/23 03:24:56;;;;;;;14.38;5.68;;;20.30;99.90;;;;;;5073853;28;20642;-82
2022/08/23 03:27:22;;;;;;;10.93;5.97;;;20.30;99.90;;;;;;5074831;28;20627;-82
2022/08/23 03:29:50;;;;;;;15.07;5.88;;;20.20;99.90;;;;;;5074520;28;20688;-82
2022/08/23 03:32:15;;;;;;;14.23;6.15;;;20.20;99.90;;;;;;5097282;28;20224;-81
2022/08/23 03:34:41;;;;;;;12.73;6.40;;;20.10;99.90;;;;;;5097872;28;20179;-81
2022/08/23 03:37:08;;;;;;;9.18;5.22;;;20.20;99.90;;;;;;5098202;28;20167;-81
2022/08/23 03:39:38;;;;;;;13.05;4.88;;;20.40;99.90;;;;;;5098461;28;20151;-81
2022/08/23 03:42:11;;;;;;;11.40;5.78;;;20.20;99.90;;;;;;5097870;28;20266;-84
2022/08/23 03:44:37;;;;;;;11.60;5.35;;;20.40;99.90;;;;;;5098136;28;20227;-82
2022/08/23 03:47:08;;;;;;;12.52;6.15;;;20.50;99.90;;;;;;5097686;28;20159;-81
2022/08/23 03:50:13;;;;;;;15.05;6.30;;;20.40;99.90;;;;;;5098621;28;20167;-81
2022/08/23 03:52:38;;;;;;;14.70;5.97;;;20.30;99.90;;;;;;5097433;28;20301;-80
2022/08/23 03:55:08;;;;;;;16.98;7.43;;;20.30;99.90;;;;;;5099743;28;20162;-82
2022/08/23 03:57:38;;;;;;;11.55;7.28;;;20.20;99.90;;;;;;5102491;28;20175;-81
2022/08/23 04:00:18;;;;;;;16.48;8.18;;;20.20;99.90;;;;;;5102110;28;20162;-81
2022/08/23 04:02:46;;;;;;;13.35;7.85;;;20.10;99.90;;;;;;5100661;28;20192;-82
2022/08/23 04:05:13;;;;;;;12.35;7.22;;;20.20;99.90;;;;;;5101364;28;20154;-81
2022/08/23 04:07:39;;;;;;;19.33;7.47;;;20.10;99.90;;;;;;5100571;28;20197;-82
2022/08/23 04:10:08;;;;;;;10.77;7.03;;;20.20;99.90;;;;;;5100277;28;20150;-82
2022/08/23 04:12:36;;;;;;;17.52;7.90;;;20.20;99.90;;;;;;5101056;28;20250;-80
2022/08/23 04:15:03;;;;;;;11.73;6.88;;;20.20;99.90;;;;;;5101245;28;20166;-81
2022/08/23 04:17:42;;;;;;;16.58;6.90;;;20.20;99.90;;;;;;5101274;28;20162;-82
2022/08/23 04:20:14;;;;;;;15.30;7.25;;;20.20;99.90;;;;;;5101564;28;20171;-85
2022/08/23 04:23:26;;;;;;;13.00;7.63;;;20.10;99.90;;;;;;5100417;28;20186;-81
2022/08/23 04:26:10;;;;;;;27.80;7.07;;;20.10;99.90;;;;;;5099835;28;20182;-81
2022/08/23 04:29:04;;;;;;;9.73;6.35;;;20.20;99.90;;;;;;5100440;28;20189;-80
2022/08/23 04:31:43;;;;;;;12.95;7.50;;;20.00;99.90;;;;;;5100182;28;20217;-81
2022/08/23 04:34:58;;;;;;;13.52;6.57;;;19.90;99.90;;;;;;5083590;28;20178;-81
2022/08/23 04:37:24;;;;;;;15.82;7.55;;;19.90;99.90;;;;;;5099064;28;20243;-80
2022/08/23 04:42:55;;;;;;;16.45;8.13;;;19.90;99.90;;;;;;5100104;28;20180;-81
2022/08/23 04:45:21;;;;;;;22.02;8.73;;;19.90;99.90;;;;;;5100779;28;20194;-82
2022/08/23 04:48:10;;;;;;;20.67;7.53;;;19.90;99.90;;;;;;5100186;28;20178;-81
2022/08/23 04:50:44;;;;;;;11.73;8.05;;;19.90;99.90;;;;;;5099845;28;20191;-82
2022/08/23 04:53:50;;;;;;;17.00;7.50;;;19.70;99.90;;;;;;5101437;28;20198;-83
2022/08/23 04:56:16;;;;;;;31.90;8.80;;;19.60;99.90;;;;;;5096900;28;20246;-82
2022/08/23 04:58:42;;;;;;;23.55;8.45;;;19.70;99.90;;;;;;5098101;28;20165;-81
2022/08/23 05:01:14;;;;;;;12.85;8.27;;;19.70;99.90;;;;;;5098362;28;20198;-81
2022/08/23 05:03:44;;;;;;;11.85;8.13;;;19.70;99.90;;;;;;5099079;28;20185;-81
2022/08/23 05:06:56;;;;;;;11.73;8.13;;;19.60;99.90;;;;;;5098943;28;20175;-81
2022/08/23 05:09:54;;;;;;;23.65;8.70;;;19.70;99.90;;;;;;5099203;28;20162;-81
2022/08/23 05:12:25;;;;;;;22.13;8.07;;;19.70;99.90;;;;;;5097254;28;20202;-80
2022/08/23 05:14:54;;;;;;;18.80;8.52;;;19.60;99.90;;;;;;5096916;28;20254;-81
2022/08/23 05:17:21;;;;;;;30.58;9.13;;;19.50;99.90;;;;;;5097756;28;20181;-81
2022/08/23 05:19:48;;;;;;;11.93;8.57;;;19.60;99.90;;;;;;5086296;28;20175;-81
2022/08/23 05:22:14;;;;;;;28.75;8.25;;;19.70;99.90;;;;;;5067415;28;20754;-80
2022/08/23 05:24:46;;;;;;;13.82;8.20;;;19.90;99.90;;;;;;5086279;28;20167;-81
2022/08/23 05:27:28;;;;;;;15.00;8.02;;;19.90;99.90;;;;;;5087857;28;20158;-81
2022/08/23 05:29:55;;;;;;;19.45;7.72;;;19.90;99.90;;;;;;5081864;28;20162;-81
2022/08/23 05:32:22;;;;;;;17.80;8.05;;;20.10;99.90;;;;;;5085004;28;20286;-81
2022/08/23 05:34:52;;;;;;;19.17;8.38;;;20.20;99.90;;;;;;5097190;28;20179;-81
2022/08/23 05:37:18;;;;;;;17.77;8.30;;;20.30;99.90;;;;;;5095715;28;20188;-84
2022/08/23 05:39:49;;;;;;;24.70;7.90;;;20.50;99.90;;;;;;5097562;28;20162;-83
2022/08/23 05:42:51;;;;;;;13.95;7.93;;;20.50;99.90;;;;;;5097534;28;20175;-88
2022/08/23 05:45:24;;;;;;;15.77;8.20;;;20.60;99.90;;;;;;5088858;28;20217;-90
2022/08/23 05:47:50;;;;;;;23.33;7.72;;;20.70;99.90;;;;;;5075966;28;20166;-90
2022/08/23 05:50:15;;;;;;;15.30;6.93;;;20.90;99.90;;;;;;5076026;28;20599;-90
2022/08/23 05:52:41;;;;;;;13.88;7.53;;;21.00;99.90;;;;;;5074330;28;20209;-88
2022/08/23 05:55:07;;;;;;;10.90;7.85;;;21.00;99.90;;;;;;5074554;28;20173;-91
2022/08/23 05:57:37;;;;;;;20.40;8.63;;;21.00;99.90;;;;;;5079361;28;20192;-94
2022/08/23 06:00:12;;;;;;;25.88;9.30;;;20.90;99.90;;;;;;5084951;28;20175;-95
2022/08/23 06:02:37;;;;;;;24.35;8.02;;;21.00;99.90;;;;;;5080874;28;20216;-88
2022/08/23 06:05:04;;;;;;;18.83;7.60;;;21.20;99.90;;;;;;5076131;28;20158;-88
2022/08/23 06:07:37;;;;;;;20.08;7.18;;;21.30;99.90;;;;;;5085397;28;20206;-81
2022/08/23 06:10:04;;;;;;;29.60;8.52;;;21.40;99.90;;;;;;5077776;28;20190;-87
2022/08/23 06:12:32;;;;;;;19.95;8.15;;;21.40;99.90;;;;;;5075252;28;20267;-83
2022/08/23 06:14:58;;;;;;;19.80;8.25;;;21.40;99.90;;;;;;5072817;28;20252;-82
2022/08/23 06:17:24;;;;;;;30.83;8.52;;;21.60;99.90;;;;;;5074856;28;20191;-84
2022/08/23 06:19:49;;;;;;;21.00;8.23;;;21.70;99.90;;;;;;5075142;28;20496;-86
2022/08/23 06:22:15;;;;;;;36.45;9.68;;;21.80;99.90;;;;;;5077128;28;20190;-85
2022/08/23 06:24:41;;;;;;;20.92;9.63;;;21.80;99.90;;;;;;5074984;28;20162;-84
2022/08/23 06:27:07;;;;;;;24.17;9.70;;;21.90;99.90;;;;;;5072737;28;20178;-83
2022/08/23 06:29:32;;;;;;;22.02;8.25;;;22.00;99.90;;;;;;5071877;28;20168;-82
2022/08/23 06:31:58;;;;;;;15.15;8.50;;;22.00;99.90;;;;;;5072759;28;20186;-83
2022/08/23 06:34:50;;;;;;;19.67;7.63;;;22.00;99.90;;;;;;5071420;28;20737;-82
2022/08/23 06:37:16;;;;;;;14.00;6.25;;;22.20;99.90;;;;;;5073137;28;20193;-82
2022/08/23 06:39:41;;;;;;;24.63;6.88;;;22.40;99.90;;;;;;5071694;28;20170;-84
2022/08/23 06:42:11;;;;;;;18.50;5.65;;;22.70;99.90;;;;;;5071630;28;20187;-85
2022/08/23 06:44:37;;;;;;;18.77;4.72;;;23.00;99.90;;;;;;5071604;28;20166;-84
2022/08/23 06:47:04;;;;;;;11.15;4.13;;;23.20;99.90;;;;;;5073407;28;20257;-84
2022/08/23 06:49:30;;;;;;;21.45;3.92;;;23.00;99.90;;;;;;5071505;28;20170;-81
2022/08/23 06:52:03;;;;;;;8.55;3.22;;;23.00;99.90;;;;;;5069022;28;20228;-82
2022/08/23 06:54:32;;;;;;;16.65;3.92;;;22.90;99.90;;;;;;5070144;28;20171;-83
2022/08/23 06:56:59;;;;;;;9.25;3.90;;;22.90;99.90;;;;;;5067803;28;20278;-83
2022/08/23 06:59:25;;;;;;;10.40;3.28;;;22.90;99.90;;;;;;5071288;28;20619;-80
2022/08/23 07:01:55;;;;;;;10.20;3.75;;;22.90;99.90;;;;;;5070576;28;20179;-82
2022/08/23 07:04:23;;;;;;;4.90;3.58;;;22.80;99.90;;;;;;5069705;28;20205;-81
2022/08/23 07:06:49;;;;;;;8.63;3.08;;;22.80;99.90;;;;;;5070645;28;20166;-85
2022/08/23 07:09:15;;;;;;;18.35;3.65;;;22.90;99.90;;;;;;5071078;28;20224;-81
2022/08/23 07:11:41;;;;;;;6.32;3.10;;;22.80;99.90;;;;;;5072020;28;20198;-84
2022/08/23 07:14:10;;;;;;;7.57;2.53;;;22.80;99.90;;;;;;5070448;28;20709;-84
2022/08/23 07:16:42;;;;;;;11.60;3.60;;;23.00;99.90;;;;;;5072151;28;20166;-82
2022/08/23 07:19:07;;;;;;;8.68;3.97;;;23.20;99.90;;;;;;5070976;28;20198;-83
2022/08/23 07:21:35;;;;;;;7.60;3.53;;;23.20;99.90;;;;;;5070434;28;20665;-83
2022/08/23 07:24:01;;;;;;;11.35;2.67;;;23.10;99.90;;;;;;5069202;28;20182;-82
2022/08/23 07:26:28;;;;;;;12.77;3.40;;;23.30;99.90;;;;;;5069898;28;20178;-81
2022/08/23 07:28:54;;;;;;;13.45;3.35;;;23.30;99.90;;;;;;5070919;28;20174;-82
2022/08/23 07:31:32;;;;;;;8.77;2.80;;;23.40;99.90;;;;;;5075069;28;20186;-83
2022/08/23 07:33:59;;;;;;;12.25;2.53;;;23.30;99.90;;;;;;5077189;28;20206;-83
2022/08/23 07:36:27;;;;;;;21.52;3.38;;;23.20;99.90;;;;;;5079321;28;20163;-86
2022/08/23 07:38:54;;;;;;;8.05;3.42;;;23.20;99.90;;;;;;5072761;28;20521;-87
2022/08/23 07:41:29;;;;;;;5.20;3.47;;;23.50;99.90;;;;;;5079124;28;20236;-88
2022/08/23 07:43:57;;;;;;;8.35;2.88;;;23.60;99.90;;;;;;5080725;28;20177;-85
2022/08/23 07:46:24;;;;;;;6.50;2.70;;;23.70;99.90;;;;;;5081637;28;20216;-92
2022/08/23 07:48:51;;;;;;;11.13;3.35;;;23.80;99.90;;;;;;5079304;28;20197;-91
2022/08/23 07:51:17;;;;;;;6.82;2.78;;;24.00;99.90;;;;;;5076831;28;20186;-83
2022/08/23 07:53:44;;;;;;;19.80;3.35;;;24.10;99.90;;;;;;5076359;28;20206;-87
2022/08/23 07:56:11;;;;;;;11.82;3.90;;;24.40;99.90;;;;;;5075994;28;20170;-87
2022/08/23 07:58:38;;;;;;;22.05;3.75;;;24.40;99.90;;;;;;5076040;28;20171;-87
2022/08/23 08:01:25;;;;;;;18.77;3.20;;;24.60;99.90;;;;;;5076020;28;20525;-87
2022/08/23 08:03:53;;;;;;;6.60;2.42;;;24.50;99.90;;;;;;5076011;28;20178;-89
2022/08/23 08:06:24;;;;;;;9.32;2.78;;;24.50;99.90;;;;;;5070485;28;20175;-87
2022/08/23 08:08:50;;;;;;;11.77;3.00;;;24.30;99.90;;;;;;5073699;28;20193;-88
2022/08/23 08:11:19;;;;;;;5.70;3.05;;;24.50;99.90;;;;;;5072498;28;20299;-87
2022/08/23 08:13:46;;;;;;;8.45;2.97;;;24.60;99.90;;;;;;5066954;28;20204;-88
2022/08/23 08:16:22;;;;;;;10.02;3.15;;;24.70;99.90;;;;;;5072899;28;20260;-89
2022/08/23 08:18:47;;;;;;;15.75;2.88;;;24.80;99.90;;;;;;5071373;28;20177;-91
2022/08/23 08:21:17;;;;;;;8.43;3.22;;;24.70;99.90;;;;;;5078538;28;20268;-89
2022/08/23 08:23:43;;;;;;;4.60;2.00;;;24.70;99.90;;;;;;5074881;28;20174;-90
2022/08/23 08:26:10;;;;;;;6.57;2.17;;;24.80;99.90;;;;;;5075375;28;20214;-89
2022/08/23 08:28:37;;;;;;;9.43;2.22;;;25.10;99.90;;;;;;5075420;28;20201;-88
2022/08/23 08:31:04;;;;;;;9.77;2.10;;;25.30;99.90;;;;;;5076454;28;20244;-88
2022/08/23 08:33:30;;;;;;;13.18;2.83;;;25.50;99.90;;;;;;5075798;28;20709;-90
2022/08/23 08:35:57;;;;;;;13.18;3.35;;;25.80;99.90;;;;;;5077173;28;20181;-90
2022/08/23 08:38:24;;;;;;;5.65;1.48;;;26.00;99.90;;;;;;5073158;28;20190;-91
2022/08/23 08:41:13;;;;;;;7.10;1.73;;;26.10;99.90;;;;;;5076264;28;20174;-91
2022/08/23 08:44:30;;;;;;;11.50;2.42;;;26.20;99.90;;;;;;5076249;28;20177;-91
2022/08/23 08:46:56;;;;;;;10.52;1.98;;;26.30;99.90;;;;;;5076707;28;20202;-94
2022/08/23 08:49:46;;;;;;;6.00;2.00;;;26.50;99.90;;;;;;5076389;28;20201;-94
2022/08/23 08:52:23;;;;;;;12.13;2.40;;;26.50;99.90;;;;;;5076842;28;20613;-92
2022/08/23 08:54:51;;;;;;;10.95;1.70;;;26.60;99.90;;;;;;5076716;28;20186;-93
2022/08/23 08:57:19;;;;;;;6.22;1.70;;;26.70;99.90;;;;;;5077413;28;20163;-90
2022/08/23 09:00:01;;;;;;;6.85;2.03;;;26.90;99.90;;;;;;5076771;28;20265;-93
2022/08/23 09:02:31;;;;;;;8.68;2.08;;;27.10;99.90;;;;;;5074802;28;20760;-94
2022/08/23 09:05:00;;;;;;;8.18;1.90;;;27.20;99.90;;;;;;5077172;28;20194;-94
2022/08/23 09:07:44;;;;;;;4.53;1.40;;;27.60;99.90;;;;;;5076561;28;20543;-94
2022/08/23 09:10:28;;;;;;;12.30;1.98;;;27.80;99.90;;;;;;5078330;28;20170;-93
2022/08/23 09:13:20;;;;;;;15.63;1.85;;;27.90;99.90;;;;;;5055562;28;20777;-89
2022/08/23 09:16:12;;;;;;;4.13;2.03;;;28.40;99.90;;;;;;5055597;28;20166;-89
2022/08/23 09:18:38;;;;;;;8.32;2.40;;;28.40;99.90;;;;;;5053429;28;20171;-88
2022/08/23 09:21:07;;;;;;;2.92;2.10;;;28.60;99.90;;;;;;5059321;28;20192;-90
2022/08/23 09:23:42;;;;;;;11.57;2.20;;;28.60;99.90;;;;;;5075293;28;20171;-92
2022/08/23 09:26:25;;;;;;;8.90;2.20;;;28.20;99.90;;;;;;5074267;28;20193;-92
2022/08/23 09:28:58;;;;;;;7.95;2.85;;;28.30;99.90;;;;;;5074163;28;20252;-92
2022/08/23 09:31:49;;;;;;;10.15;3.03;;;28.30;99.90;;;;;;5073923;28;20202;-91
2022/08/23 09:34:29;;;;;;;6.80;3.65;;;28.20;99.90;;;;;;5077750;28;20210;-91
2022/08/23 09:37:08;;;;;;;9.68;3.55;;;28.30;99.90;;;;;;5078240;28;20167;-92
2022/08/23 09:39:35;;;;;;;22.98;3.58;;;28.20;99.90;;;;;;5074753;28;20594;-88
2022/08/23 09:42:01;;;;;;;7.32;3.55;;;28.00;99.90;;;;;;5054031;28;20191;-90
2022/08/23 09:44:38;;;;;;;11.52;2.92;;;28.10;99.90;;;;;;5053927;28;20662;-91
2022/08/23 09:47:15;;;;;;;8.20;2.67;;;28.00;99.90;;;;;;5054856;28;20658;-90
2022/08/23 09:49:43;;;;;;;5.93;2.70;;;28.10;99.90;;;;;;5058222;28;20177;-92
2022/08/23 09:52:20;;;;;;;3.63;2.13;;;28.00;99.90;;;;;;5072243;28;20198;-89
2022/08/23 09:54:58;;;;;;;3.63;2.40;;;28.20;99.90;;;;;;5077715;28;20261;-87
2022/08/23 09:57:29;;;;;;;8.25;3.03;;;28.10;99.90;;;;;;5075717;28;20171;-87
2022/08/23 10:00:00;;;;;;;4.45;2.20;;;28.40;99.90;;;;;;5075478;28;20167;-92
2022/08/23 10:02:32;;;;;;;2.47;1.60;;;28.30;99.90;;;;;;5075068;28;20183;-90
2022/08/23 10:04:59;;;;;;;3.90;1.17;;;28.10;99.90;;;;;;5073450;28;20178;-91
2022/08/23 10:07:25;;;;;;;1.27;0.80;;;28.10;99.90;;;;;;5074985;28;20257;-90
2022/08/23 10:09:51;;;;;;;3.72;1.10;;;28.30;99.90;;;;;;5073560;28;20202;-92
2022/08/23 10:12:16;;;;;;;3.38;1.10;;;28.30;99.90;;;;;;5075037;28;20213;-91
2022/08/23 10:14:42;;;;;;;7.97;1.20;;;28.30;99.90;;;;;;5074330;28;20178;-92
2022/08/23 10:17:33;;;;;;;2.80;0.93;;;27.90;99.90;;;;;;5075127;28;20218;-86
2022/08/23 10:20:22;;;;;;;4.65;1.10;;;27.90;99.90;;;;;;5082128;28;20174;-83
2022/08/23 10:23:14;;;;;;;4.65;0.80;;;28.00;99.90;;;;;;5086533;28;20200;-85
2022/08/23 10:25:47;;;;;;;3.33;0.80;;;28.00;99.90;;;;;;5081475;28;20187;-91
2022/08/23 10:31:34;;;;;;;1.30;1.00;;;28.00;99.90;;;;;;5077940;28;20216;-94
2022/08/23 10:34:26;;;;;;;2.42;0.88;;;28.00;99.90;;;;;;5079259;28;20216;-95
2022/08/23 10:37:24;;;;;;;3.65;0.85;;;28.20;99.90;;;;;;5085704;28;20173;-85
2022/08/23 10:40:16;;;;;;;5.80;1.05;;;28.60;99.90;;;;;;5089506;28;20529;-85
2022/08/23 10:42:49;;;;;;;1.05;0.77;;;28.60;99.90;;;;;;5086170;28;20207;-90
2022/08/23 10:45:34;;;;;;;2.70;1.10;;;28.60;99.90;;;;;;5083906;28;20198;-84
2022/08/23 10:48:27;;;;;;;1.38;0.47;;;28.60;99.90;;;;;;5084787;28;20260;-86
2022/08/23 10:51:08;;;;;;;1.95;0.60;;;28.50;99.90;;;;;;5079925;28;20181;-86
2022/08/23 10:53:46;;;;;;;0.85;0.70;;;28.70;99.90;;;;;;5094213;28;20210;-84
2022/08/23 10:56:34;;;;;;;0.95;0.60;;;28.50;99.90;;;;;;5099013;28;20193;-83
2022/08/23 10:59:23;;;;;;;1.88;0.50;;;28.50;99.90;;;;;;5097575;28;20177;-84
2022/08/23 11:02:18;;;;;;;0.77;0.40;;;28.70;99.90;;;;;;5097431;28;20202;-83
2022/08/23 11:05:27;;;;;;;26.00;0.90;;;28.70;99.90;;;;;;5097958;28;20166;-86
2022/08/23 11:08:10;;;;;;;0.32;0.32;;;28.60;99.90;;;;;;5091119;28;20174;-83
2022/08/23 11:10:38;;;;;;;6.70;0.70;;;28.80;99.90;;;;;;5071814;28;20182;-83
2022/08/23 11:13:17;;;;;;;4.15;0.55;;;28.70;99.90;;;;;;5074952;28;20218;-84
2022/08/23 11:16:05;;;;;;;0.88;0.50;;;28.70;99.90;;;;;;5094877;28;20198;-83
2022/08/23 11:18:43;;;;;;;12.20;0.63;;;28.90;99.90;;;;;;5091550;28;20192;-84
2022/08/23 11:21:24;;;;;;;6.35;0.65;;;29.00;99.90;;;;;;5063109;28;20240;-89
2022/08/23 11:23:58;;;;;;;5.50;0.70;;;29.30;99.90;;;;;;5037430;28;20198;-88
2022/08/23 11:26:28;;;;;;;2.33;0.70;;;29.60;99.90;;;;;;5058713;28;20185;-84
2022/08/23 11:29:04;;;;;;;1.23;0.82;;;29.60;99.90;;;;;;5044080;28;20205;-86
2022/08/23 11:31:34;;;;;;;10.52;0.68;;;29.60;99.90;;;;;;5065087;28;20201;-86
2022/08/23 11:34:07;;;;;;;4.22;0.55;;;29.40;99.90;;;;;;5083429;28;20217;-88
2022/08/23 11:36:35;;;;;;;0.52;0.40;;;29.30;99.90;;;;;;5075398;28;20188;-86
2022/08/23 11:39:10;;;;;;;3.22;0.47;;;29.40;99.90;;;;;;5064590;28;20184;-87
2022/08/23 11:41:59;;;;;;;1.42;0.40;;;29.50;99.90;;;;;;5075968;28;20178;-86
2022/08/23 11:44:38;;;;;;;1.20;0.50;;;29.70;99.90;;;;;;5069897;28;20186;-87
2022/08/23 11:47:09;;;;;;;5.10;0.65;;;29.70;99.90;;;;;;5078690;28;20178;-89
2022/08/23 11:50:09;;;;;;;0.45;0.45;;;29.60;99.90;;;;;;5072224;28;20196;-87
2022/08/23 11:52:57;;;;;;;0.98;0.50;;;29.70;99.90;;;;;;5072564;28;20214;-87
2022/08/23 11:55:50;;;;;;;0.68;0.60;;;29.70;99.90;;;;;;5071800;28;20204;-84
2022/08/23 11:58:22;;;;;;;0.73;0.60;;;29.40;99.90;;;;;;5071230;28;20236;-87
2022/08/23 12:01:10;;;;;;;2.08;0.90;;;29.60;99.90;;;;;;5071236;28;20159;-88
2022/08/23 12:03:50;;;;;;;0.52;0.40;;;29.40;99.90;;;;;;5070975;28;20530;-83
2022/08/23 12:06:34;;;;;;;1.05;0.50;;;29.30;99.90;;;;;;5071593;28;20672;-84
2022/08/23 12:09:35;;;;;;;0.28;0.22;;;29.70;99.90;;;;;;5072125;28;20188;-88
2022/08/23 12:12:01;;;;;;;5.25;0.75;;;29.90;99.90;;;;;;5073187;28;20202;-86
2022/08/23 12:14:41;;;;;;;1.25;0.90;;;30.10;99.90;;;;;;5073390;28;20182;-85
2022/08/23 12:17:17;;;;;;;1.65;1.00;;;30.30;99.90;;;;;;5074665;28;20511;-85
2022/08/23 12:19:49;;;;;;;0.75;0.50;;;30.20;99.90;;;;;;5076161;28;20204;-87
2022/08/23 12:22:20;;;;;;;1.25;0.82;;;29.90;99.90;;;;;;5075375;28;20657;-87
2022/08/23 12:24:53;;;;;;;0.98;0.57;;;29.80;99.90;;;;;;5075828;28;20170;-88
2022/08/23 12:27:49;;;;;;;2.85;0.70;;;29.80;99.90;;;;;;5075545;28;20180;-83
2022/08/23 12:30:28;;;;;;;1.38;0.30;;;29.70;99.90;;;;;;5074683;28;20200;-82
2022/08/23 12:33:09;;;;;;;0.80;0.50;;;29.70;99.90;;;;;;5075591;28;20243;-83
2022/08/23 12:35:44;;;;;;;0.73;0.60;;;29.70;99.90;;;;;;5074470;28;20630;-83
2022/08/23 12:38:53;;;;;;;1.67;0.60;;;29.80;99.90;;;;;;5075546;28;20157;-83
2022/08/23 12:41:31;;;;;;;0.50;0.50;;;29.70;99.90;;;;;;5074249;28;20205;-83
2022/08/23 12:44:00;;;;;;;0.98;0.60;;;29.80;99.90;;;;;;5074150;28;20182;-84
2022/08/23 12:46:34;;;;;;;0.47;0.47;;;30.00;99.90;;;;;;5073876;28;20170;-83
2022/08/23 12:49:00;;;;;;;0.98;0.45;;;30.00;99.90;;;;;;5076381;28;20166;-88
2022/08/23 12:51:26;;;;;;;3.80;0.60;;;30.10;99.90;;;;;;5076562;28;20186;-86
2022/08/23 12:53:52;;;;;;;0.45;0.40;;;30.30;99.90;;;;;;5076937;28;20669;-88
2022/08/23 12:56:25;;;;;;;4.57;0.50;;;29.90;99.90;;;;;;5076447;28;20162;-86
2022/08/23 12:58:58;;;;;;;0.88;0.40;;;29.70;99.90;;;;;;5079409;28;20192;-84
2022/08/23 13:01:32;;;;;;;2.00;0.65;;;29.70;99.90;;;;;;5079056;28;20193;-88
2022/08/23 13:04:18;;;;;;;1.67;0.50;;;29.70;99.90;;;;;;5078546;28;20189;-86
2022/08/23 13:06:49;;;;;;;0.40;0.40;;;29.80;99.90;;;;;;5075602;28;20185;-87
2022/08/23 13:09:27;;;;;;;2.53;0.50;;;29.80;99.90;;;;;;5077258;28;20201;-88
2022/08/23 13:11:53;;;;;;;0.40;0.40;;;29.90;99.90;;;;;;5076962;28;20657;-86
2022/08/23 13:14:31;;;;;;;0.43;0.43;;;30.00;99.90;;;;;;5075645;28;20231;-87
2022/08/23 13:17:11;;;;;;;1.25;0.38;;;30.10;99.90;;;;;;5076612;28;20184;-88
2022/08/23 13:19:37;;;;;;;3.72;0.43;;;30.20;99.90;;;;;;5075028;28;20196;-86
2022/08/23 13:22:18;;;;;;;1.33;0.50;;;30.20;99.90;;;;;;5075517;28;20643;-88
2022/08/23 13:25:05;;;;;;;1.38;1.02;;;30.10;99.90;;;;;;5074444;28;20193;-86
2022/08/23 13:27:54;;;;;;;5.75;0.55;;;30.10;99.90;;;;;;5076095;28;20192;-94
2022/08/23 13:30:24;;;;;;;0.95;0.60;;;29.80;99.90;;;;;;5083538;28;20261;-90